Time;durP1;ratioP1;P1;durP2;ratioP2;P2;SDS_P1;SDS_P2;PMS_P1;PMS_P2;Temp;Humidity;BMP_temperature;BMP_pressure;BME280_temperature;BME280_humidity;BME280_pressure;Samples;Min_cycle;Max_cycle;Signal;HPM_P1;HPM_P2
2021/05/20 00:00:33;;;;;;;1.65;1.05;;;;;;;;;;1480801;40;20036;-61
2021/05/20 00:01:34;;;;;;;2.20;1.20;;;;;;;;;;1480839;40;20033;-62
2021/05/20 00:02:35;;;;;;;1.90;1.20;;;;;;;;;;1480738;40;20048;-62
2021/05/20 00:03:36;;;;;;;2.00;1.10;;;;;;;;;;1480675;40;20029;-62
2021/05/20 00:04:39;;;;;;;2.10;1.00;;;;;;;;;;1480813;40;20036;-61
2021/05/20 00:05:40;;;;;;;1.95;1.13;;;;;;;;;;1480610;40;20032;-62
2021/05/20 00:06:41;;;;;;;2.30;1.02;;;;;;;;;;1480572;40;20419;-61
2021/05/20 00:07:42;;;;;;;1.85;1.15;;;;;;;;;;1480571;40;20087;-62
2021/05/20 00:08:44;;;;;;;2.50;1.30;;;;;;;;;;1480752;40;20041;-64
2021/05/20 00:09:45;;;;;;;2.88;1.55;;;;;;;;;;1480604;40;20029;-62
2021/05/20 00:10:46;;;;;;;1.90;1.20;;;;;;;;;;1480772;40;20033;-63
2021/05/20 00:11:47;;;;;;;1.75;1.10;;;;;;;;;;1480779;40;20029;-62
2021/05/20 00:12:48;;;;;;;2.70;1.27;;;;;;;;;;1480726;40;20032;-62
2021/05/20 00:13:49;;;;;;;2.17;1.00;;;;;;;;;;1480607;40;20032;-63
2021/05/20 00:14:50;;;;;;;2.38;1.20;;;;;;;;;;1480588;40;20377;-62
2021/05/20 00:15:51;;;;;;;3.03;1.30;;;;;;;;;;1480477;40;20383;-61
2021/05/20 00:16:53;;;;;;;2.60;1.48;;;;;;;;;;1480375;40;20049;-62
2021/05/20 00:17:54;;;;;;;2.15;1.17;;;;;;;;;;1480650;40;20033;-63
2021/05/20 00:18:55;;;;;;;1.98;1.20;;;;;;;;;;1480550;40;20040;-62
2021/05/20 00:19:57;;;;;;;2.47;1.25;;;;;;;;;;1480682;40;20026;-62
2021/05/20 00:20:58;;;;;;;2.10;1.17;;;;;;;;;;1480648;40;20029;-62
2021/05/20 00:21:59;;;;;;;2.45;1.20;;;;;;;;;;1480709;40;20036;-62
2021/05/20 00:23:00;;;;;;;3.67;1.30;;;;;;;;;;1480768;40;20032;-62
2021/05/20 00:24:01;;;;;;;3.10;1.40;;;;;;;;;;1480789;40;20143;-63
2021/05/20 00:25:03;;;;;;;1.90;1.17;;;;;;;;;;1480768;40;20045;-64
2021/05/20 00:26:05;;;;;;;2.17;1.20;;;;;;;;;;1480552;40;20389;-61
2021/05/20 00:27:06;;;;;;;2.10;1.20;;;;;;;;;;1480560;40;20029;-61
2021/05/20 00:28:07;;;;;;;2.97;1.27;;;;;;;;;;1480596;40;20055;-63
2021/05/20 00:29:08;;;;;;;2.55;1.17;;;;;;;;;;1480551;40;20042;-62
2021/05/20 00:30:10;;;;;;;3.83;1.10;;;;;;;;;;1480522;40;20036;-62
2021/05/20 00:31:12;;;;;;;2.53;1.10;;;;;;;;;;1480509;40;20385;-62
2021/05/20 00:32:13;;;;;;;1.30;0.95;;;;;;;;;;1480696;40;20036;-61
2021/05/20 00:33:14;;;;;;;2.55;1.30;;;;;;;;;;1480492;40;20051;-62
2021/05/20 00:34:15;;;;;;;1.98;1.25;;;;;;;;;;1480718;40;20025;-63
2021/05/20 00:35:17;;;;;;;1.80;1.00;;;;;;;;;;1480569;40;20277;-63
2021/05/20 00:36:18;;;;;;;3.47;1.27;;;;;;;;;;1480420;40;20048;-62
2021/05/20 00:37:19;;;;;;;2.60;1.15;;;;;;;;;;1480543;40;20408;-62
2021/05/20 00:38:20;;;;;;;1.85;1.00;;;;;;;;;;1480745;40;20033;-64
2021/05/20 00:39:22;;;;;;;2.50;1.20;;;;;;;;;;1480734;40;20277;-62
2021/05/20 00:40:23;;;;;;;3.58;1.42;;;;;;;;;;1480280;40;20025;-62
2021/05/20 00:41:24;;;;;;;1.60;1.10;;;;;;;;;;1480053;40;20344;-63
2021/05/20 00:42:25;;;;;;;2.35;1.10;;;;;;;;;;1480542;40;20025;-62
2021/05/20 00:43:27;;;;;;;2.35;1.20;;;;;;;;;;1480553;40;20033;-62
2021/05/20 00:44:27;;;;;;;2.10;1.27;;;;;;;;;;1480705;40;20040;-62
2021/05/20 00:45:29;;;;;;;2.22;1.08;;;;;;;;;;1480521;40;20033;-61
2021/05/20 00:46:30;;;;;;;1.98;0.95;;;;;;;;;;1480663;40;20048;-63
2021/05/20 00:47:33;;;;;;;2.47;1.13;;;;;;;;;;1480540;40;20033;-62
2021/05/20 00:48:34;;;;;;;1.65;1.05;;;;;;;;;;1480704;40;20033;-62
2021/05/20 00:49:36;;;;;;;1.73;1.02;;;;;;;;;;1480606;40;20305;-61
2021/05/20 00:50:38;;;;;;;3.05;1.00;;;;;;;;;;1480769;40;20041;-61
2021/05/20 00:51:41;;;;;;;1.92;1.17;;;;;;;;;;1480432;40;20086;-62
2021/05/20 00:52:42;;;;;;;2.50;1.10;;;;;;;;;;1480639;40;20040;-62
2021/05/20 00:53:45;;;;;;;1.90;1.05;;;;;;;;;;1480397;40;20041;-62
2021/05/20 00:54:50;;;;;;;2.05;1.30;;;;;;;;;;1480427;40;20073;-62
2021/05/20 00:55:51;;;;;;;3.05;1.23;;;;;;;;;;1480417;40;20033;-63
2021/05/20 00:56:53;;;;;;;2.78;1.10;;;;;;;;;;1480607;40;20026;-61
2021/05/20 00:57:54;;;;;;;1.98;1.15;;;;;;;;;;1480434;40;20026;-63
2021/05/20 00:58:56;;;;;;;3.33;1.30;;;;;;;;;;1480554;40;20036;-62
2021/05/20 01:00:04;;;;;;;2.28;1.27;;;;;;;;;;1480440;40;20036;-62
2021/05/20 01:01:09;;;;;;;2.10;1.10;;;;;;;;;;1480442;40;20398;-64
2021/05/20 01:02:10;;;;;;;2.33;1.10;;;;;;;;;;1480472;40;20060;-61
2021/05/20 01:03:13;;;;;;;2.22;1.50;;;;;;;;;;1480462;40;20041;-62
2021/05/20 01:04:13;;;;;;;2.80;1.33;;;;;;;;;;1480576;40;20036;-62
2021/05/20 01:05:15;;;;;;;1.75;1.10;;;;;;;;;;1480505;40;20324;-62
2021/05/20 01:06:17;;;;;;;2.03;1.17;;;;;;;;;;1480364;40;20045;-61
2021/05/20 01:07:18;;;;;;;3.03;1.30;;;;;;;;;;1480535;40;20029;-62
2021/05/20 01:08:19;;;;;;;2.17;1.20;;;;;;;;;;1480473;40;20297;-62
2021/05/20 01:09:20;;;;;;;2.83;1.30;;;;;;;;;;1480445;40;20029;-62
2021/05/20 01:10:21;;;;;;;2.30;1.20;;;;;;;;;;1479940;40;20083;-62
2021/05/20 01:11:22;;;;;;;2.17;1.27;;;;;;;;;;1480146;40;20106;-61
2021/05/20 01:12:23;;;;;;;2.38;1.20;;;;;;;;;;1480547;40;20033;-62
2021/05/20 01:13:25;;;;;;;2.95;1.40;;;;;;;;;;1480651;40;20079;-61
2021/05/20 01:14:26;;;;;;;3.17;1.60;;;;;;;;;;1480510;40;20025;-62
2021/05/20 01:15:29;;;;;;;2.45;1.40;;;;;;;;;;1480502;40;20029;-62
2021/05/20 01:16:30;;;;;;;2.72;1.40;;;;;;;;;;1480504;40;20312;-62
2021/05/20 01:17:31;;;;;;;2.30;1.60;;;;;;;;;;1480640;40;20033;-63
2021/05/20 01:18:32;;;;;;;2.05;1.15;;;;;;;;;;1480558;40;20036;-62
2021/05/20 01:19:35;;;;;;;3.15;1.58;;;;;;;;;;1480399;40;20403;-62
2021/05/20 01:20:40;;;;;;;2.70;1.65;;;;;;;;;;1480582;40;20029;-63
2021/05/20 01:21:42;;;;;;;2.25;1.45;;;;;;;;;;1480460;40;20033;-62
2021/05/20 01:22:43;;;;;;;4.50;1.40;;;;;;;;;;1480377;40;20270;-62
2021/05/20 01:23:44;;;;;;;2.83;1.58;;;;;;;;;;1480588;40;20040;-62
2021/05/20 01:24:46;;;;;;;3.55;1.35;;;;;;;;;;1480636;40;20385;-62
2021/05/20 01:25:49;;;;;;;2.30;1.40;;;;;;;;;;1480416;40;20381;-62
2021/05/20 01:26:50;;;;;;;2.95;1.40;;;;;;;;;;1480423;40;20037;-62
2021/05/20 01:27:52;;;;;;;2.50;1.45;;;;;;;;;;1480261;40;20393;-62
2021/05/20 01:28:53;;;;;;;3.63;1.75;;;;;;;;;;1479943;40;20182;-63
2021/05/20 01:29:54;;;;;;;2.60;1.55;;;;;;;;;;1480569;40;20040;-62
2021/05/20 01:30:56;;;;;;;2.63;1.50;;;;;;;;;;1480766;40;20048;-61
2021/05/20 01:31:56;;;;;;;2.20;1.40;;;;;;;;;;1480394;40;20389;-62
2021/05/20 01:32:58;;;;;;;2.50;1.35;;;;;;;;;;1480413;40;20079;-61
2021/05/20 01:33:59;;;;;;;2.55;1.50;;;;;;;;;;1480431;40;20296;-61
2021/05/20 01:35:00;;;;;;;2.80;1.73;;;;;;;;;;1480363;40;20380;-62
2021/05/20 01:36:03;;;;;;;2.83;1.75;;;;;;;;;;1480476;40;20025;-61
2021/05/20 01:37:06;;;;;;;3.47;1.52;;;;;;;;;;1480387;40;20029;-61
2021/05/20 01:38:40;;;;;;;2.80;1.48;;;;;;;;;;1480607;40;20033;-62
2021/05/20 01:39:40;;;;;;;2.38;1.20;;;;;;;;;;1480413;40;20041;-62
2021/05/20 01:40:41;;;;;;;2.17;1.20;;;;;;;;;;1480630;40;20029;-62
2021/05/20 01:41:42;;;;;;;2.88;1.65;;;;;;;;;;1480361;40;20034;-62
2021/05/20 01:42:44;;;;;;;2.00;1.33;;;;;;;;;;1480551;40;20029;-63
2021/05/20 01:43:45;;;;;;;2.30;1.45;;;;;;;;;;1480408;40;20060;-62
2021/05/20 01:44:46;;;;;;;3.13;1.60;;;;;;;;;;1480376;40;20397;-62
2021/05/20 01:45:50;;;;;;;3.35;1.60;;;;;;;;;;1480474;40;20048;-62
2021/05/20 01:46:52;;;;;;;2.72;1.90;;;;;;;;;;1480609;40;20065;-62
2021/05/20 01:47:52;;;;;;;2.75;1.60;;;;;;;;;;1480402;40;20045;-62
2021/05/20 01:48:55;;;;;;;2.13;1.50;;;;;;;;;;1480530;40;20041;-62
2021/05/20 01:49:56;;;;;;;3.08;1.42;;;;;;;;;;1480602;40;20047;-63
2021/05/20 01:51:04;;;;;;;2.40;1.63;;;;;;;;;;1480388;40;20057;-62
2021/05/20 01:52:04;;;;;;;2.03;1.42;;;;;;;;;;1480388;40;20033;-62
2021/05/20 01:53:06;;;;;;;4.60;1.80;;;;;;;;;;1480343;40;20091;-62
2021/05/20 01:54:08;;;;;;;3.10;1.60;;;;;;;;;;1480385;40;20408;-63
2021/05/20 01:55:10;;;;;;;3.03;1.80;;;;;;;;;;1480466;40;20041;-62
2021/05/20 01:56:13;;;;;;;2.83;1.40;;;;;;;;;;1480454;40;20036;-62
2021/05/20 01:57:15;;;;;;;2.72;1.58;;;;;;;;;;1480335;40;20033;-62
2021/05/20 01:58:16;;;;;;;3.28;1.65;;;;;;;;;;1480392;40;20397;-62
2021/05/20 01:59:17;;;;;;;2.03;1.30;;;;;;;;;;1480411;40;20037;-62
2021/05/20 02:00:19;;;;;;;2.45;1.25;;;;;;;;;;1480525;40;20025;-62
2021/05/20 02:01:20;;;;;;;2.80;1.30;;;;;;;;;;1480359;40;20033;-62
2021/05/20 02:02:21;;;;;;;2.88;1.60;;;;;;;;;;1480511;40;20107;-64
2021/05/20 02:03:23;;;;;;;2.20;1.27;;;;;;;;;;1480473;40;20061;-63
2021/05/20 02:04:24;;;;;;;2.47;1.60;;;;;;;;;;1480515;40;20030;-62
2021/05/20 02:05:25;;;;;;;2.25;1.48;;;;;;;;;;1480317;40;20330;-62
2021/05/20 02:06:28;;;;;;;2.28;1.30;;;;;;;;;;1480414;40;20044;-62
2021/05/20 02:07:29;;;;;;;2.80;1.73;;;;;;;;;;1480306;40;20056;-62
2021/05/20 02:08:31;;;;;;;2.50;1.65;;;;;;;;;;1480480;40;20029;-62
2021/05/20 02:09:32;;;;;;;4.68;1.50;;;;;;;;;;1480414;40;20076;-62
2021/05/20 02:10:33;;;;;;;1.92;1.38;;;;;;;;;;1480323;40;20025;-62
2021/05/20 02:11:34;;;;;;;2.85;1.70;;;;;;;;;;1480496;40;20036;-62
2021/05/20 02:12:35;;;;;;;1.88;1.25;;;;;;;;;;1480320;40;20282;-63
2021/05/20 02:13:37;;;;;;;2.40;1.48;;;;;;;;;;1480502;40;20084;-63
2021/05/20 02:14:38;;;;;;;3.03;1.42;;;;;;;;;;1480329;40;20381;-62
2021/05/20 02:15:40;;;;;;;2.13;1.17;;;;;;;;;;1480528;40;20040;-62
2021/05/20 02:16:41;;;;;;;2.28;1.23;;;;;;;;;;1480306;40;20044;-62
2021/05/20 02:17:42;;;;;;;1.95;1.10;;;;;;;;;;1480242;40;20029;-62
2021/05/20 02:18:43;;;;;;;2.90;1.40;;;;;;;;;;1480470;40;20029;-62
2021/05/20 02:19:44;;;;;;;2.20;1.40;;;;;;;;;;1480503;40;20029;-62
2021/05/20 02:20:46;;;;;;;4.00;1.80;;;;;;;;;;1480279;40;20025;-62
2021/05/20 02:21:48;;;;;;;3.03;1.60;;;;;;;;;;1480354;40;20033;-62
2021/05/20 02:22:49;;;;;;;2.55;1.45;;;;;;;;;;1480447;40;20048;-62
2021/05/20 02:23:50;;;;;;;2.67;1.45;;;;;;;;;;1480268;40;20381;-62
2021/05/20 02:24:51;;;;;;;2.00;1.45;;;;;;;;;;1480447;40;20029;-62
2021/05/20 02:25:52;;;;;;;4.00;2.00;;;;;;;;;;1480242;40;20286;-62
2021/05/20 02:26:53;;;;;;;2.35;1.52;;;;;;;;;;1480361;40;20031;-62
2021/05/20 02:27:54;;;;;;;3.03;1.30;;;;;;;;;;1480376;40;20305;-62
2021/05/20 02:28:55;;;;;;;2.30;1.30;;;;;;;;;;1480214;40;20029;-62
2021/05/20 02:29:57;;;;;;;3.08;1.40;;;;;;;;;;1480470;40;20033;-62
2021/05/20 02:30:58;;;;;;;2.25;1.33;;;;;;;;;;1479843;40;20036;-62
2021/05/20 02:31:59;;;;;;;2.10;1.50;;;;;;;;;;1479822;40;20044;-63
2021/05/20 02:33:00;;;;;;;2.97;1.55;;;;;;;;;;1480430;40;20029;-63
2021/05/20 02:34:01;;;;;;;2.38;1.30;;;;;;;;;;1480245;40;20033;-62
2021/05/20 02:35:03;;;;;;;2.38;1.30;;;;;;;;;;1480345;40;20032;-62
2021/05/20 02:36:05;;;;;;;2.33;1.10;;;;;;;;;;1480200;40;20065;-61
2021/05/20 02:37:06;;;;;;;2.50;1.27;;;;;;;;;;1480256;40;20293;-62
2021/05/20 02:38:08;;;;;;;1.80;1.20;;;;;;;;;;1480430;40;20118;-62
2021/05/20 02:39:09;;;;;;;1.65;1.00;;;;;;;;;;1480207;40;20021;-62
2021/05/20 02:40:12;;;;;;;2.05;1.10;;;;;;;;;;1479561;40;20036;-62
2021/05/20 02:41:13;;;;;;;2.90;1.23;;;;;;;;;;1479790;40;20066;-62
2021/05/20 02:42:14;;;;;;;2.10;1.10;;;;;;;;;;1479738;40;20056;-62
2021/05/20 02:43:15;;;;;;;2.95;1.05;;;;;;;;;;1480384;40;20021;-62
2021/05/20 02:44:16;;;;;;;2.67;1.05;;;;;;;;;;1480365;40;20377;-62
2021/05/20 02:45:19;;;;;;;2.00;0.90;;;;;;;;;;1480367;40;20029;-62
2021/05/20 02:46:21;;;;;;;1.60;1.00;;;;;;;;;;1480348;40;20044;-62
2021/05/20 02:47:22;;;;;;;1.90;1.05;;;;;;;;;;1480358;40;20389;-62
2021/05/20 02:48:23;;;;;;;1.80;1.10;;;;;;;;;;1480317;40;20029;-62
2021/05/20 02:49:24;;;;;;;2.83;0.90;;;;;;;;;;1480297;40;20032;-62
2021/05/20 02:50:26;;;;;;;1.90;0.90;;;;;;;;;;1480189;40;20030;-62
2021/05/20 02:51:26;;;;;;;1.52;1.00;;;;;;;;;;1480121;40;20412;-61
2021/05/20 02:52:29;;;;;;;2.85;1.10;;;;;;;;;;1480148;40;20034;-62
2021/05/20 02:53:30;;;;;;;1.92;0.90;;;;;;;;;;1480450;40;20033;-62
2021/05/20 02:54:31;;;;;;;3.38;1.20;;;;;;;;;;1480165;40;20322;-62
2021/05/20 02:55:33;;;;;;;1.80;1.00;;;;;;;;;;1480323;40;20041;-62
2021/05/20 02:56:34;;;;;;;1.70;1.13;;;;;;;;;;1480203;40;20037;-62
2021/05/20 02:57:35;;;;;;;2.85;1.00;;;;;;;;;;1480304;40;20033;-62
2021/05/20 02:58:37;;;;;;;2.17;1.10;;;;;;;;;;1480335;40;20288;-62
2021/05/20 02:59:38;;;;;;;2.22;1.20;;;;;;;;;;1480342;40;20030;-61
2021/05/20 03:00:39;;;;;;;2.58;1.33;;;;;;;;;;1480133;40;20033;-62
2021/05/20 03:01:43;;;;;;;3.15;1.20;;;;;;;;;;1480300;40;20045;-62
2021/05/20 03:02:44;;;;;;;2.20;1.30;;;;;;;;;;1480144;40;20444;-63
2021/05/20 03:03:45;;;;;;;2.58;1.35;;;;;;;;;;1480143;40;20036;-63
2021/05/20 03:04:46;;;;;;;2.42;1.15;;;;;;;;;;1480141;40;20032;-62
2021/05/20 03:05:47;;;;;;;2.47;1.15;;;;;;;;;;1480425;40;20037;-62
2021/05/20 03:06:48;;;;;;;2.63;1.20;;;;;;;;;;1480179;40;20025;-63
2021/05/20 03:07:53;;;;;;;1.60;1.10;;;;;;;;;;1480295;40;20026;-62
2021/05/20 03:08:56;;;;;;;1.83;1.27;;;;;;;;;;1480235;40;20029;-62
2021/05/20 03:09:57;;;;;;;1.95;0.90;;;;;;;;;;1480138;40;20029;-62
2021/05/20 03:10:58;;;;;;;1.35;0.80;;;;;;;;;;1480380;40;20037;-62
2021/05/20 03:12:00;;;;;;;2.33;1.10;;;;;;;;;;1480141;40;20033;-62
2021/05/20 03:13:02;;;;;;;2.65;1.02;;;;;;;;;;1480136;40;20403;-62
2021/05/20 03:14:03;;;;;;;1.70;1.00;;;;;;;;;;1480100;40;20389;-62
2021/05/20 03:15:05;;;;;;;2.70;0.95;;;;;;;;;;1480107;40;20292;-62
2021/05/20 03:16:06;;;;;;;2.08;1.02;;;;;;;;;;1480082;40;20025;-63
2021/05/20 03:17:11;;;;;;;1.58;0.85;;;;;;;;;;1480333;40;20025;-62
2021/05/20 03:18:12;;;;;;;1.63;0.90;;;;;;;;;;1480066;40;20042;-63
2021/05/20 03:19:13;;;;;;;1.77;0.90;;;;;;;;;;1480133;40;20045;-62
2021/05/20 03:20:15;;;;;;;1.67;1.00;;;;;;;;;;1480207;40;20033;-62
2021/05/20 03:21:17;;;;;;;1.20;0.80;;;;;;;;;;1480064;40;20076;-62
2021/05/20 03:22:17;;;;;;;2.58;1.10;;;;;;;;;;1480092;40;20025;-62
2021/05/20 03:23:20;;;;;;;2.53;0.85;;;;;;;;;;1480104;40;20091;-62
2021/05/20 03:24:20;;;;;;;1.23;1.00;;;;;;;;;;1480042;40;20056;-62
2021/05/20 03:25:22;;;;;;;1.50;0.90;;;;;;;;;;1480285;40;20029;-62
2021/05/20 03:26:23;;;;;;;1.55;0.90;;;;;;;;;;1480199;40;20040;-61
2021/05/20 03:27:24;;;;;;;1.13;0.70;;;;;;;;;;1480248;40;20429;-62
2021/05/20 03:28:25;;;;;;;2.25;1.00;;;;;;;;;;1480051;40;20398;-63
2021/05/20 03:29:26;;;;;;;2.03;0.90;;;;;;;;;;1480112;40;20033;-62
2021/05/20 03:30:27;;;;;;;1.60;0.95;;;;;;;;;;1480033;40;20025;-62
2021/05/20 03:31:29;;;;;;;1.95;1.17;;;;;;;;;;1480269;40;20029;-63
2021/05/20 03:32:29;;;;;;;1.70;0.88;;;;;;;;;;1480076;40;20041;-62
2021/05/20 03:33:31;;;;;;;1.60;0.90;;;;;;;;;;1480198;40;20029;-62
2021/05/20 03:34:32;;;;;;;2.60;0.80;;;;;;;;;;1479996;40;20029;-62
2021/05/20 03:35:33;;;;;;;1.33;0.70;;;;;;;;;;1480235;40;20029;-62
2021/05/20 03:36:34;;;;;;;2.70;1.10;;;;;;;;;;1479878;40;20029;-62
2021/05/20 03:37:36;;;;;;;1.40;0.80;;;;;;;;;;1480041;40;20383;-62
2021/05/20 03:38:38;;;;;;;1.52;0.93;;;;;;;;;;1480008;40;20304;-63
2021/05/20 03:39:39;;;;;;;1.52;0.98;;;;;;;;;;1480129;40;20385;-62
2021/05/20 03:40:40;;;;;;;1.90;1.08;;;;;;;;;;1480047;40;20037;-62
2021/05/20 03:41:41;;;;;;;2.25;1.10;;;;;;;;;;1480188;40;20036;-62
2021/05/20 03:42:43;;;;;;;1.67;0.93;;;;;;;;;;1480003;40;20092;-62
2021/05/20 03:43:44;;;;;;;2.33;1.10;;;;;;;;;;1480122;40;20359;-63
2021/05/20 03:44:45;;;;;;;1.85;1.05;;;;;;;;;;1480004;40;20025;-62
2021/05/20 03:45:46;;;;;;;1.35;0.88;;;;;;;;;;1479995;40;20296;-62
2021/05/20 03:46:47;;;;;;;2.58;1.10;;;;;;;;;;1480154;40;20029;-62
2021/05/20 03:47:48;;;;;;;2.05;0.98;;;;;;;;;;1480007;40;20037;-63
2021/05/20 03:48:49;;;;;;;1.88;0.82;;;;;;;;;;1480016;40;20041;-63
2021/05/20 03:49:50;;;;;;;2.42;1.05;;;;;;;;;;1480140;40;20036;-62
2021/05/20 03:50:52;;;;;;;1.52;0.85;;;;;;;;;;1479996;40;20367;-62
2021/05/20 03:51:53;;;;;;;2.03;1.20;;;;;;;;;;1480120;40;20038;-62
2021/05/20 03:52:58;;;;;;;1.52;0.80;;;;;;;;;;1480846;40;20041;-62
2021/05/20 03:54:00;;;;;;;2.92;0.93;;;;;;;;;;1480850;40;20025;-62
2021/05/20 03:55:01;;;;;;;1.58;0.80;;;;;;;;;;1480851;40;20036;-62
2021/05/20 03:56:02;;;;;;;1.30;0.80;;;;;;;;;;1480643;40;20032;-62
2021/05/20 03:57:04;;;;;;;1.90;1.10;;;;;;;;;;1480776;40;20026;-62
2021/05/20 03:58:05;;;;;;;1.90;0.80;;;;;;;;;;1480636;40;20032;-62
2021/05/20 03:59:06;;;;;;;2.70;0.82;;;;;;;;;;1480859;40;20025;-62
2021/05/20 04:00:09;;;;;;;2.38;1.00;;;;;;;;;;1480648;40;20505;-62
2021/05/20 04:01:10;;;;;;;1.48;0.85;;;;;;;;;;1480641;40;20069;-62
2021/05/20 04:02:11;;;;;;;2.03;0.90;;;;;;;;;;1480839;40;20025;-62
2021/05/20 04:03:21;;;;;;;1.80;0.95;;;;;;;;;;1480681;40;20296;-64
2021/05/20 04:04:22;;;;;;;1.73;0.85;;;;;;;;;;1480667;40;20424;-62
2021/05/20 04:05:24;;;;;;;1.50;0.80;;;;;;;;;;1480799;40;20037;-62
2021/05/20 04:06:24;;;;;;;2.03;0.85;;;;;;;;;;1480593;40;20040;-61
2021/05/20 04:07:26;;;;;;;1.52;0.80;;;;;;;;;;1480620;40;20036;-62
2021/05/20 04:08:27;;;;;;;1.42;0.82;;;;;;;;;;1480617;40;20115;-62
2021/05/20 04:09:44;;;;;;;2.05;0.90;;;;;;;;;;1480669;40;20039;-62
2021/05/20 04:10:45;;;;;;;1.65;0.80;;;;;;;;;;1480808;40;20040;-62
2021/05/20 04:11:46;;;;;;;1.77;0.80;;;;;;;;;;1480650;40;20033;-62
2021/05/20 04:12:47;;;;;;;1.33;0.75;;;;;;;;;;1480674;40;20036;-61
2021/05/20 04:13:48;;;;;;;1.60;0.95;;;;;;;;;;1480813;40;20033;-62
2021/05/20 04:14:49;;;;;;;2.05;0.80;;;;;;;;;;1480573;40;20344;-62
2021/05/20 04:15:50;;;;;;;1.33;0.88;;;;;;;;;;1480492;40;20034;-65
2021/05/20 04:16:51;;;;;;;1.40;0.85;;;;;;;;;;1480473;40;20029;-62
2021/05/20 04:17:53;;;;;;;2.65;0.80;;;;;;;;;;1480614;40;20390;-62
2021/05/20 04:18:54;;;;;;;2.50;0.90;;;;;;;;;;1480772;40;20033;-64
2021/05/20 04:19:55;;;;;;;1.30;0.80;;;;;;;;;;1480610;40;20281;-62
2021/05/20 04:20:56;;;;;;;1.80;0.82;;;;;;;;;;1480561;40;20114;-62
2021/05/20 04:21:58;;;;;;;1.30;0.70;;;;;;;;;;1480646;40;20404;-62
2021/05/20 04:22:58;;;;;;;1.30;0.73;;;;;;;;;;1480750;40;20025;-62
2021/05/20 04:24:00;;;;;;;1.85;1.00;;;;;;;;;;1480584;40;20305;-62
2021/05/20 04:25:02;;;;;;;1.35;0.80;;;;;;;;;;1480650;40;20040;-62
2021/05/20 04:26:03;;;;;;;1.10;0.75;;;;;;;;;;1480606;40;20036;-62
2021/05/20 04:27:05;;;;;;;2.10;1.00;;;;;;;;;;1480728;40;20156;-62
2021/05/20 04:28:07;;;;;;;2.63;0.95;;;;;;;;;;1480653;40;20396;-62
2021/05/20 04:29:09;;;;;;;1.15;0.73;;;;;;;;;;1480608;40;20033;-62
2021/05/20 04:30:11;;;;;;;1.30;0.80;;;;;;;;;;1480876;40;20037;-63
2021/05/20 04:31:12;;;;;;;2.60;1.10;;;;;;;;;;1480515;40;20030;-62
2021/05/20 04:32:13;;;;;;;3.08;1.02;;;;;;;;;;1480825;40;20045;-62
2021/05/20 04:33:14;;;;;;;1.38;0.85;;;;;;;;;;1480848;40;20110;-62
2021/05/20 04:34:16;;;;;;;1.75;0.80;;;;;;;;;;1480831;40;20025;-62
2021/05/20 04:35:17;;;;;;;4.32;1.10;;;;;;;;;;1480518;40;20028;-63
2021/05/20 04:36:18;;;;;;;2.03;1.00;;;;;;;;;;1480486;40;20415;-63
2021/05/20 04:37:19;;;;;;;2.15;1.00;;;;;;;;;;1480785;40;20048;-62
2021/05/20 04:38:20;;;;;;;2.38;1.00;;;;;;;;;;1480532;40;20044;-62
2021/05/20 04:39:21;;;;;;;2.53;1.00;;;;;;;;;;1480702;40;20037;-62
2021/05/20 04:40:23;;;;;;;3.30;1.23;;;;;;;;;;1480646;40;20034;-62
2021/05/20 04:41:24;;;;;;;3.53;0.85;;;;;;;;;;1480712;40;20026;-62
2021/05/20 04:42:26;;;;;;;1.60;1.00;;;;;;;;;;1480593;40;20045;-62
2021/05/20 04:43:26;;;;;;;2.60;1.10;;;;;;;;;;1480529;40;20037;-62
2021/05/20 04:44:28;;;;;;;2.00;1.20;;;;;;;;;;1480760;40;20033;-62
2021/05/20 04:45:29;;;;;;;2.40;1.10;;;;;;;;;;1480724;40;20035;-63
2021/05/20 04:46:30;;;;;;;2.25;1.20;;;;;;;;;;1480642;40;20045;-62
2021/05/20 04:47:31;;;;;;;2.38;1.10;;;;;;;;;;1480522;40;20278;-62
2021/05/20 04:48:33;;;;;;;2.05;1.00;;;;;;;;;;1480713;40;20040;-62
2021/05/20 04:49:33;;;;;;;1.65;1.00;;;;;;;;;;1480628;40;20052;-62
2021/05/20 04:50:35;;;;;;;2.03;1.13;;;;;;;;;;1480529;40;20025;-63
2021/05/20 04:51:35;;;;;;;3.00;1.30;;;;;;;;;;1480706;40;20036;-62
2021/05/20 04:52:37;;;;;;;2.97;1.27;;;;;;;;;;1480070;40;20033;-62
2021/05/20 04:53:37;;;;;;;1.90;1.10;;;;;;;;;;1480038;40;20321;-62
2021/05/20 04:54:39;;;;;;;2.53;1.20;;;;;;;;;;1480520;40;20029;-63
2021/05/20 04:55:41;;;;;;;1.83;0.95;;;;;;;;;;1479983;40;20087;-62
2021/05/20 04:56:42;;;;;;;2.28;1.23;;;;;;;;;;1480062;40;20040;-62
2021/05/20 04:57:43;;;;;;;1.95;1.20;;;;;;;;;;1480491;40;20029;-62
2021/05/20 04:58:44;;;;;;;2.22;1.40;;;;;;;;;;1480754;40;20036;-62
2021/05/20 04:59:45;;;;;;;3.85;1.42;;;;;;;;;;1480106;40;20077;-63
2021/05/20 05:00:47;;;;;;;2.92;1.35;;;;;;;;;;1480021;40;20036;-62
2021/05/20 05:01:48;;;;;;;2.25;1.23;;;;;;;;;;1480723;40;20029;-62
2021/05/20 05:02:50;;;;;;;2.40;1.33;;;;;;;;;;1480249;40;20029;-62
2021/05/20 05:03:51;;;;;;;3.40;1.40;;;;;;;;;;1480479;40;20289;-64
2021/05/20 05:04:52;;;;;;;2.28;1.20;;;;;;;;;;1480511;40;20040;-62
2021/05/20 05:05:53;;;;;;;1.75;1.10;;;;;;;;;;1480414;40;20032;-62
2021/05/20 05:06:55;;;;;;;2.33;1.38;;;;;;;;;;1480749;40;20127;-63
2021/05/20 05:07:55;;;;;;;2.00;1.08;;;;;;;;;;1480619;40;20092;-62
2021/05/20 05:08:57;;;;;;;2.42;1.30;;;;;;;;;;1480515;40;20054;-63
2021/05/20 05:09:58;;;;;;;2.60;1.30;;;;;;;;;;1480451;40;20033;-63
2021/05/20 05:11:00;;;;;;;2.10;1.42;;;;;;;;;;1480423;40;20040;-62
2021/05/20 05:12:01;;;;;;;2.33;1.35;;;;;;;;;;1480642;40;20036;-62
2021/05/20 05:13:02;;;;;;;2.17;1.30;;;;;;;;;;1479948;40;20029;-62
2021/05/20 05:14:03;;;;;;;2.72;1.10;;;;;;;;;;1480010;40;20080;-63
2021/05/20 05:15:06;;;;;;;3.25;1.20;;;;;;;;;;1480656;40;20040;-63
2021/05/20 05:16:07;;;;;;;2.55;1.25;;;;;;;;;;1479867;40;20025;-63
2021/05/20 05:17:08;;;;;;;2.63;1.40;;;;;;;;;;1479968;40;20056;-63
2021/05/20 05:18:09;;;;;;;1.85;1.38;;;;;;;;;;1480615;40;20028;-63
2021/05/20 05:19:10;;;;;;;2.20;1.35;;;;;;;;;;1480449;40;20300;-62
2021/05/20 05:20:11;;;;;;;2.03;1.25;;;;;;;;;;1480467;40;20481;-63
2021/05/20 05:21:13;;;;;;;2.95;1.50;;;;;;;;;;1480074;40;20065;-62
2021/05/20 05:22:14;;;;;;;2.03;1.30;;;;;;;;;;1480125;40;20118;-63
2021/05/20 05:23:15;;;;;;;2.17;1.30;;;;;;;;;;1480463;40;20045;-63
2021/05/20 05:24:16;;;;;;;2.67;1.23;;;;;;;;;;1480607;40;20025;-63
2021/05/20 05:25:17;;;;;;;2.55;1.65;;;;;;;;;;1480422;40;20033;-62
2021/05/20 05:26:21;;;;;;;2.65;1.20;;;;;;;;;;1480572;40;20033;-62
2021/05/20 05:27:23;;;;;;;2.60;1.40;;;;;;;;;;1480440;40;20025;-63
2021/05/20 05:28:24;;;;;;;2.95;1.40;;;;;;;;;;1480457;40;20025;-63
2021/05/20 05:29:25;;;;;;;2.35;1.38;;;;;;;;;;1480465;40;20033;-63
2021/05/20 05:30:26;;;;;;;2.00;1.30;;;;;;;;;;1480438;40;20037;-63
2021/05/20 05:31:28;;;;;;;2.90;1.40;;;;;;;;;;1480440;40;20029;-62
2021/05/20 05:32:28;;;;;;;2.70;1.45;;;;;;;;;;1480571;40;20025;-62
2021/05/20 05:33:30;;;;;;;2.45;1.40;;;;;;;;;;1480684;40;20022;-63
2021/05/20 05:34:31;;;;;;;3.25;1.60;;;;;;;;;;1480421;40;20040;-63
2021/05/20 05:35:32;;;;;;;3.08;1.55;;;;;;;;;;1480441;40;20392;-63
2021/05/20 05:36:33;;;;;;;3.60;1.80;;;;;;;;;;1480503;40;20040;-62
2021/05/20 05:37:34;;;;;;;2.83;1.60;;;;;;;;;;1480604;40;20056;-62
2021/05/20 05:38:35;;;;;;;3.22;1.83;;;;;;;;;;1480371;40;20033;-63
2021/05/20 05:39:36;;;;;;;2.65;1.70;;;;;;;;;;1480363;40;20025;-63
2021/05/20 05:40:37;;;;;;;3.53;1.70;;;;;;;;;;1480012;40;20029;-63
2021/05/20 05:41:40;;;;;;;3.55;1.42;;;;;;;;;;1480114;40;20127;-63
2021/05/20 05:42:41;;;;;;;2.40;1.42;;;;;;;;;;1480374;40;20301;-63
2021/05/20 05:43:42;;;;;;;2.47;1.60;;;;;;;;;;1480394;40;20029;-63
2021/05/20 05:44:43;;;;;;;3.05;1.52;;;;;;;;;;1480365;40;20034;-62
2021/05/20 05:45:44;;;;;;;2.42;1.48;;;;;;;;;;1480366;40;20057;-63
2021/05/20 05:46:45;;;;;;;4.35;1.50;;;;;;;;;;1480474;40;20115;-64
2021/05/20 05:47:46;;;;;;;2.10;1.50;;;;;;;;;;1480530;40;20367;-63
2021/05/20 05:48:49;;;;;;;2.60;1.52;;;;;;;;;;1479992;40;20129;-63
2021/05/20 05:49:52;;;;;;;2.00;1.27;;;;;;;;;;1479923;40;20031;-63
2021/05/20 05:50:55;;;;;;;3.75;1.40;;;;;;;;;;1480545;40;20037;-63
2021/05/20 05:51:59;;;;;;;2.33;1.48;;;;;;;;;;1480347;40;20437;-63
2021/05/20 05:53:04;;;;;;;2.05;1.40;;;;;;;;;;1480373;40;20318;-63
2021/05/20 05:54:06;;;;;;;2.03;1.20;;;;;;;;;;1480549;40;20057;-63
2021/05/20 05:55:09;;;;;;;3.40;1.70;;;;;;;;;;1479941;40;20037;-62
2021/05/20 05:56:10;;;;;;;3.55;1.70;;;;;;;;;;1479864;40;20059;-62
2021/05/20 05:57:12;;;;;;;2.78;1.50;;;;;;;;;;1480317;40;20392;-63
2021/05/20 05:58:13;;;;;;;4.88;1.65;;;;;;;;;;1480523;40;20080;-62
2021/05/20 05:59:14;;;;;;;3.08;1.60;;;;;;;;;;1480348;40;20300;-63
2021/05/20 06:00:17;;;;;;;2.67;1.63;;;;;;;;;;1480517;40;20115;-63
2021/05/20 06:01:18;;;;;;;2.17;1.27;;;;;;;;;;1480311;40;20037;-62
2021/05/20 06:02:21;;;;;;;2.28;1.58;;;;;;;;;;1480333;40;20029;-63
2021/05/20 06:03:23;;;;;;;2.10;1.30;;;;;;;;;;1480313;40;20406;-62
2021/05/20 06:04:24;;;;;;;2.53;1.27;;;;;;;;;;1480502;40;20041;-63
2021/05/20 06:05:25;;;;;;;2.67;1.30;;;;;;;;;;1480375;40;20036;-63
2021/05/20 06:06:27;;;;;;;4.78;1.50;;;;;;;;;;1480476;40;20041;-63
2021/05/20 06:07:27;;;;;;;3.45;1.50;;;;;;;;;;1480304;40;20045;-62
2021/05/20 06:08:29;;;;;;;2.65;1.35;;;;;;;;;;1480397;40;20038;-63
2021/05/20 06:09:30;;;;;;;2.05;1.30;;;;;;;;;;1480312;40;20389;-63